createdAt,value
2022-08-22T00:01:04.416Z,18.72
2022-08-22T00:03:07.041Z,19.10
2022-08-22T00:04:07.996Z,18.76
2022-08-22T00:07:18.332Z,18.78
2022-08-22T00:10:27.875Z,18.72
2022-08-22T00:14:01.651Z,18.85
2022-08-22T00:17:09.499Z,18.96
2022-08-22T00:20:13.884Z,18.96
2022-08-22T00:23:18.538Z,18.66
2022-08-22T00:26:48.984Z,18.83
2022-08-22T00:30:00.309Z,18.87
2022-08-22T00:33:05.227Z,18.60
2022-08-22T00:36:23.805Z,18.84
2022-08-22T00:39:34.056Z,18.85
2022-08-22T00:43:04.192Z,18.61
2022-08-22T00:46:20.056Z,18.59
2022-08-22T00:49:33.625Z,18.43
2022-08-22T00:53:00.209Z,18.50
2022-08-22T00:56:13.817Z,18.51
2022-08-22T00:59:24.005Z,18.26
2022-08-22T01:03:02.144Z,18.25
2022-08-22T01:06:12.456Z,18.33
2022-08-22T01:09:23.710Z,18.35
2022-08-22T01:12:46.889Z,18.36
2022-08-22T01:15:53.269Z,18.18
2022-08-22T01:19:07.154Z,18.10
2022-08-22T01:22:30.153Z,18.27
2022-08-22T01:25:56.160Z,18.16
2022-08-22T01:29:19.459Z,18.42
2022-08-22T01:32:53.402Z,18.22
2022-08-22T01:36:16.292Z,18.11
2022-08-22T01:39:55.711Z,18.19
2022-08-22T01:43:51.339Z,18.20
2022-08-22T01:46:58.402Z,18.14
2022-08-22T01:50:38.379Z,18.12
2022-08-22T01:53:56.902Z,18.04
2022-08-22T01:57:02.428Z,17.89
2022-08-22T02:00:17.694Z,17.99
2022-08-22T02:03:53.592Z,18.12
2022-08-22T02:07:03.850Z,17.97
2022-08-22T02:10:26.764Z,18.12
2022-08-22T02:13:46.791Z,17.92
2022-08-22T02:16:56.452Z,17.94
2022-08-22T02:20:17.971Z,18.05
2022-08-22T02:23:46.821Z,17.93
2022-08-22T02:27:29.875Z,18.19
2022-08-22T02:30:42.333Z,18.20
2022-08-22T02:33:46.560Z,18.09
2022-08-22T02:37:08.678Z,17.97
2022-08-22T02:40:34.060Z,18.00
2022-08-22T02:43:57.506Z,17.87
2022-08-22T02:47:09.831Z,17.89
2022-08-22T02:50:18.533Z,18.04
2022-08-22T02:53:49.780Z,18.01
2022-08-22T02:57:05.747Z,17.94
2022-08-22T03:00:31.742Z,17.76
2022-08-22T03:03:41.448Z,17.50
2022-08-22T03:07:00.071Z,17.61
2022-08-22T03:10:18.907Z,17.30
2022-08-22T03:14:03.657Z,17.18
2022-08-22T03:17:26.525Z,17.15
2022-08-22T03:21:12.429Z,17.21
2022-08-22T03:24:43.135Z,17.11
2022-08-22T03:28:00.124Z,17.14
2022-08-22T03:31:17.762Z,17.11
2022-08-22T03:34:26.980Z,17.06
2022-08-22T03:37:31.400Z,17.11
2022-08-22T03:40:49.149Z,17.06
2022-08-22T03:44:30.449Z,16.99
2022-08-22T03:47:51.469Z,16.94
2022-08-22T03:51:13.470Z,16.93
2022-08-22T03:54:41.809Z,16.86
2022-08-22T03:58:27.979Z,16.72
2022-08-22T04:01:44.933Z,16.60
2022-08-22T04:05:19.214Z,16.33
2022-08-22T04:08:31.743Z,16.38
2022-08-22T04:11:51.567Z,16.29
2022-08-22T04:15:21.090Z,16.29
2022-08-22T04:19:08.034Z,16.44
2022-08-22T04:22:12.555Z,16.54
2022-08-22T04:25:19.916Z,16.32
2022-08-22T04:28:34.317Z,16.16
2022-08-22T04:31:48.263Z,16.21
2022-08-22T04:34:59.634Z,16.34
2022-08-22T04:38:04.261Z,16.25
2022-08-22T04:41:11.047Z,16.22
2022-08-22T04:44:30.836Z,16.15
2022-08-22T04:48:08.222Z,16.24
2022-08-22T04:51:22.157Z,16.19
2022-08-22T04:54:51.304Z,16.26
2022-08-22T04:58:16.962Z,16.12
2022-08-22T05:01:39.316Z,16.18
2022-08-22T05:04:49.746Z,16.30
2022-08-22T05:08:03.194Z,16.30
2022-08-22T05:11:07.536Z,16.20
2022-08-22T05:14:15.324Z,16.08
2022-08-22T05:17:22.300Z,16.23
2022-08-22T05:20:27.452Z,16.25
2022-08-22T05:23:38.572Z,16.34
2022-08-22T05:26:44.265Z,16.35
2022-08-22T05:29:50.292Z,16.34
2022-08-22T05:32:57.112Z,16.36
2022-08-22T05:36:07.276Z,16.26
2022-08-22T05:39:11.614Z,16.41
2022-08-22T05:42:22.101Z,16.31
2022-08-22T05:45:26.372Z,16.42
2022-08-22T05:48:57.265Z,16.28
2022-08-22T05:52:17.005Z,16.33
2022-08-22T05:55:30.353Z,16.29
2022-08-22T05:58:42.953Z,16.33
2022-08-22T06:02:05.539Z,16.54
2022-08-22T06:05:11.907Z,16.56
2022-08-22T06:08:34.442Z,16.56
2022-08-22T06:12:00.467Z,16.58
2022-08-22T06:15:23.212Z,16.77
2022-08-22T06:18:26.886Z,16.71
2022-08-22T06:21:39.233Z,16.77
2022-08-22T06:24:41.390Z,16.81
2022-08-22T06:27:46.218Z,16.91
2022-08-22T06:30:51.030Z,16.93
2022-08-22T06:34:04.706Z,16.93
2022-08-22T06:37:12.275Z,17.02
2022-08-22T06:40:16.698Z,17.14
2022-08-22T06:43:18.790Z,17.19
2022-08-22T06:46:24.638Z,17.25
2022-08-22T06:49:29.406Z,17.34
2022-08-22T06:52:34.581Z,17.44
2022-08-22T06:55:40.309Z,17.49
2022-08-22T06:58:47.736Z,17.65
2022-08-22T07:02:07.016Z,17.73
2022-08-22T07:05:16.591Z,17.83
2022-08-22T07:08:21.542Z,17.84
2022-08-22T07:11:28.029Z,17.99
2022-08-22T07:14:38.590Z,18.10
2022-08-22T07:17:53.560Z,18.32
2022-08-22T07:21:08.114Z,18.59
2022-08-22T07:24:16.998Z,18.73
2022-08-22T07:27:26.109Z,18.92
2022-08-22T07:30:40.857Z,19.19
2022-08-22T07:33:55.107Z,19.36
2022-08-22T07:37:03.515Z,19.51
2022-08-22T07:40:23.705Z,19.70
2022-08-22T07:43:34.339Z,20.03
2022-08-22T07:46:48.082Z,20.19
2022-08-22T07:49:56.635Z,20.39
2022-08-22T07:53:08.686Z,20.45
2022-08-22T07:56:19.212Z,20.48
2022-08-22T07:59:22.254Z,20.67
2022-08-22T08:02:25.127Z,20.85
2022-08-22T08:05:32.358Z,21.00
2022-08-22T08:08:36.672Z,21.26
2022-08-22T08:11:40.423Z,21.53
2022-08-22T08:14:45.406Z,21.63
2022-08-22T08:17:52.360Z,21.70
2022-08-22T08:21:09.105Z,21.84
2022-08-22T08:24:18.059Z,22.11
2022-08-22T08:27:44.975Z,22.40
2022-08-22T08:31:07.419Z,22.59
2022-08-22T08:34:15.346Z,22.72
2022-08-22T08:37:22.363Z,22.73
2022-08-22T08:40:35.643Z,23.02
2022-08-22T08:43:49.312Z,23.34
2022-08-22T08:47:00.317Z,23.41
2022-08-22T08:50:17.486Z,23.51
2022-08-22T08:57:18.733Z,23.87
2022-08-22T09:00:31.826Z,24.10
2022-08-22T09:04:14.993Z,24.05
2022-08-22T09:07:38.867Z,24.33
2022-08-22T09:10:49.140Z,24.49
2022-08-22T09:14:02.506Z,24.58
2022-08-22T09:17:21.110Z,24.55
2022-08-22T09:20:46.374Z,24.89
2022-08-22T09:24:10.842Z,25.08
2022-08-22T09:27:21.489Z,25.13
2022-08-22T09:30:48.709Z,25.22
2022-08-22T09:33:59.904Z,25.41
2022-08-22T09:37:25.391Z,25.45
2022-08-22T09:40:33.699Z,25.59
2022-08-22T09:43:48.397Z,25.45
2022-08-22T09:46:53.277Z,25.45
2022-08-22T09:50:30.771Z,25.57
2022-08-22T09:54:00.545Z,25.56
2022-08-22T09:57:14.083Z,25.53
2022-08-22T10:00:23.559Z,25.74
2022-08-22T10:03:27.792Z,25.87
2022-08-22T10:06:41.070Z,25.96
2022-08-22T10:10:06.910Z,25.98
2022-08-22T10:13:39.293Z,26.04
2022-08-22T10:17:30.522Z,26.18
2022-08-22T10:20:47.590Z,26.35
2022-08-22T10:23:50.042Z,26.38
2022-08-22T10:26:55.653Z,26.31
2022-08-22T10:30:08.050Z,26.74
2022-08-22T10:33:16.671Z,26.53
2022-08-22T10:36:35.158Z,26.32
2022-08-22T10:39:56.624Z,26.15
2022-08-22T10:43:29.014Z,26.48
2022-08-22T10:46:42.171Z,26.52
2022-08-22T10:50:21.183Z,26.52
2022-08-22T10:53:34.967Z,26.51
2022-08-22T10:56:54.380Z,26.49
2022-08-22T11:00:10.048Z,26.50
2022-08-22T11:03:23.364Z,26.78
2022-08-22T11:06:46.681Z,26.75
2022-08-22T11:10:01.783Z,26.79
2022-08-22T11:13:27.059Z,26.71
2022-08-22T11:17:30.283Z,26.75
2022-08-22T11:20:57.305Z,26.70
2022-08-22T11:24:35.625Z,26.81
2022-08-22T11:28:12.905Z,26.89
2022-08-22T11:31:51.284Z,26.96
2022-08-22T11:34:57.372Z,26.89
2022-08-22T11:38:03.840Z,26.81
2022-08-22T11:41:29.613Z,27.00
2022-08-22T11:44:43.028Z,26.98
2022-08-22T11:48:08.404Z,27.05
2022-08-22T11:51:24.971Z,26.87
2022-08-22T11:54:34.907Z,27.00
2022-08-22T11:57:44.348Z,26.93
2022-08-22T12:01:01.840Z,26.96
2022-08-22T12:04:18.545Z,27.04
2022-08-22T12:07:31.444Z,27.10
2022-08-22T12:10:42.360Z,27.30
2022-08-22T12:14:02.399Z,27.12
2022-08-22T12:17:55.013Z,27.40
2022-08-22T12:21:03.843Z,27.45
2022-08-22T12:24:29.943Z,27.34
2022-08-22T12:27:48.311Z,27.12
2022-08-22T12:31:39.581Z,26.93
2022-08-22T12:35:13.757Z,26.91
2022-08-22T12:38:28.439Z,27.00
2022-08-22T12:41:46.864Z,27.20
2022-08-22T12:45:02.269Z,27.19
2022-08-22T12:48:37.496Z,27.03
2022-08-22T12:52:04.831Z,27.23
2022-08-22T12:55:25.315Z,27.37
2022-08-22T12:58:38.966Z,27.48
2022-08-22T13:01:44.533Z,27.50
2022-08-22T13:04:54.171Z,27.31
2022-08-22T13:08:04.411Z,27.36
2022-08-22T13:11:22.313Z,27.46
2022-08-22T13:14:27.824Z,27.67
2022-08-22T13:17:30.178Z,27.71
2022-08-22T13:20:37.414Z,27.56
2022-08-22T13:23:44.717Z,28.19
2022-08-22T13:26:50.209Z,28.73
2022-08-22T13:30:01.841Z,28.88
2022-08-22T13:33:13.282Z,28.35
2022-08-22T13:36:21.159Z,28.21
2022-08-22T13:39:32.938Z,29.16
2022-08-22T13:42:45.537Z,29.74
2022-08-22T13:45:56.294Z,29.50
2022-08-22T13:49:04.672Z,28.81
2022-08-22T13:52:17.748Z,28.51
2022-08-22T13:55:49.182Z,28.54
2022-08-22T13:58:56.983Z,28.39
2022-08-22T14:02:34.141Z,28.01
2022-08-22T14:05:46.418Z,28.13
2022-08-22T14:08:51.781Z,28.02
2022-08-22T14:12:12.266Z,28.05
2022-08-22T14:15:23.350Z,27.89
2022-08-22T14:18:35.866Z,28.14
2022-08-22T14:21:48.314Z,29.18
2022-08-22T14:24:55.653Z,29.22
2022-08-22T14:28:06.282Z,28.83
2022-08-22T14:31:14.178Z,28.76
2022-08-22T14:34:16.415Z,29.79
2022-08-22T14:37:28.768Z,30.23
2022-08-22T14:40:36.551Z,30.25
2022-08-22T14:44:09.720Z,30.35
2022-08-22T14:47:51.051Z,29.73
2022-08-22T14:50:49.150Z,29.52
2022-08-22T14:54:09.464Z,29.12
2022-08-22T14:57:19.801Z,28.83
2022-08-22T15:00:31.903Z,28.53
2022-08-22T15:03:37.346Z,28.49
2022-08-22T15:06:53.722Z,28.57
2022-08-22T15:10:01.093Z,28.44
2022-08-22T15:13:08.068Z,28.38
2022-08-22T15:16:15.721Z,28.86
2022-08-22T15:19:27.374Z,28.74
2022-08-22T15:22:29.245Z,28.45
2022-08-22T15:25:40.974Z,28.28
2022-08-22T15:28:52.322Z,27.98
2022-08-22T15:32:02.273Z,27.87
2022-08-22T15:35:27.509Z,27.65
2022-08-22T15:38:36.451Z,27.69
2022-08-22T15:41:43.514Z,27.90
2022-08-22T15:44:46.892Z,27.66
2022-08-22T15:47:53.119Z,27.93
2022-08-22T15:51:04.856Z,27.89
2022-08-22T15:54:24.770Z,27.72
2022-08-22T15:57:41.366Z,28.14
2022-08-22T16:01:04.746Z,27.88
2022-08-22T16:04:49.092Z,27.76
2022-08-22T16:07:58.910Z,28.00
2022-08-22T16:11:03.152Z,27.88
2022-08-22T16:14:21.421Z,27.62
2022-08-22T16:17:29.074Z,27.72
2022-08-22T16:20:36.661Z,27.70
2022-08-22T16:23:50.061Z,27.46
2022-08-22T16:26:52.020Z,27.50
2022-08-22T16:30:07.364Z,27.91
2022-08-22T16:33:18.220Z,28.31
2022-08-22T16:36:41.810Z,28.39
2022-08-22T16:39:46.032Z,28.69
2022-08-22T16:43:09.837Z,28.62
2022-08-22T16:46:37.279Z,28.60
2022-08-22T16:49:50.722Z,28.88
2022-08-22T16:52:57.288Z,28.78
2022-08-22T16:56:24.741Z,28.85
2022-08-22T16:59:39.531Z,29.44
2022-08-22T17:03:18.057Z,29.42
2022-08-22T17:06:41.134Z,29.84
2022-08-22T17:09:56.587Z,29.93
2022-08-22T17:13:10.502Z,30.06
2022-08-22T17:16:27.910Z,30.07
2022-08-22T17:19:56.863Z,29.60
2022-08-22T17:23:13.409Z,28.83
2022-08-22T17:26:48.788Z,28.76
2022-08-22T17:30:09.116Z,28.32
2022-08-22T17:33:20.936Z,28.13
2022-08-22T17:37:07.169Z,27.73
2022-08-22T17:40:15.453Z,27.46
2022-08-22T17:43:49.812Z,27.46
2022-08-22T17:47:07.111Z,27.42
2022-08-22T17:50:40.824Z,27.38
2022-08-22T17:53:55.056Z,27.20
2022-08-22T17:57:11.108Z,26.96
2022-08-22T18:00:18.744Z,26.69
2022-08-22T18:03:31.644Z,26.64
2022-08-22T18:06:38.732Z,26.58
2022-08-22T18:09:56.148Z,26.54
2022-08-22T18:13:35.420Z,26.38
2022-08-22T18:16:47.010Z,26.19
2022-08-22T18:19:55.915Z,26.07
2022-08-22T18:23:08.490Z,26.03
2022-08-22T18:26:33.658Z,25.79
2022-08-22T18:29:59.058Z,25.90
2022-08-22T18:33:26.700Z,25.58
2022-08-22T18:36:38.245Z,25.49
2022-08-22T18:39:59.737Z,25.19
2022-08-22T18:43:13.435Z,25.10
2022-08-22T18:46:40.961Z,25.16
2022-08-22T18:49:48.463Z,25.72
2022-08-22T18:52:50.786Z,25.94
2022-08-22T18:56:06.582Z,25.74
2022-08-22T18:59:28.914Z,25.97
2022-08-22T19:02:33.622Z,25.83
2022-08-22T19:06:16.969Z,25.59
2022-08-22T19:09:50.468Z,25.94
2022-08-22T19:13:17.134Z,25.71
2022-08-22T19:16:52.922Z,25.54
2022-08-22T19:20:31.721Z,25.70
2022-08-22T19:23:37.026Z,25.52
2022-08-22T19:26:44.671Z,25.32
2022-08-22T19:29:46.056Z,25.50
2022-08-22T19:32:47.681Z,25.37
2022-08-22T19:35:51.928Z,25.33
2022-08-22T19:39:04.676Z,25.49
2022-08-22T19:42:30.954Z,25.41
2022-08-22T19:45:39.648Z,25.64
2022-08-22T19:48:48.399Z,25.44
2022-08-22T19:52:03.262Z,25.29
2022-08-22T19:55:23.542Z,25.28
2022-08-22T19:58:31.839Z,25.19
2022-08-22T20:01:40.649Z,25.17
2022-08-22T20:05:03.971Z,25.21
2022-08-22T20:08:24.935Z,24.96
2022-08-22T20:12:15.232Z,25.13
2022-08-22T20:15:24.396Z,25.17
2022-08-22T20:19:02.003Z,25.16
2022-08-22T20:22:11.600Z,25.09
2022-08-22T20:25:43.563Z,25.07
2022-08-22T20:28:49.733Z,25.07
2022-08-22T20:31:58.594Z,24.89
2022-08-22T20:35:03.021Z,24.94
2022-08-22T20:38:07.457Z,24.88
2022-08-22T20:41:21.345Z,24.82
2022-08-22T20:44:30.760Z,24.88
2022-08-22T20:47:41.094Z,24.75
2022-08-22T20:50:43.868Z,24.84
2022-08-22T20:53:58.766Z,24.77
2022-08-22T20:57:16.127Z,24.67
2022-08-22T21:00:42.163Z,24.70
2022-08-22T21:03:47.753Z,24.74
2022-08-22T21:06:58.969Z,24.64
2022-08-22T21:10:45.195Z,24.74
2022-08-22T21:13:47.590Z,24.52
2022-08-22T21:16:50.053Z,24.52
2022-08-22T21:19:51.650Z,24.58
2022-08-22T21:22:53.113Z,24.54
2022-08-22T21:26:05.163Z,24.44
2022-08-22T21:29:08.648Z,24.48
2022-08-22T21:32:40.485Z,24.71
2022-08-22T21:35:41.919Z,24.66
2022-08-22T21:38:59.070Z,24.71
2022-08-22T21:42:00.452Z,24.44
2022-08-22T21:45:08.653Z,24.60
2022-08-22T21:48:35.067Z,24.71
2022-08-22T21:51:36.491Z,24.64
2022-08-22T21:54:40.094Z,24.71
2022-08-22T21:57:42.121Z,24.73
2022-08-22T22:01:22.139Z,24.72
2022-08-22T22:04:26.446Z,24.55
2022-08-22T22:07:28.822Z,24.43
2022-08-22T22:10:31.074Z,24.31
2022-08-22T22:13:32.526Z,24.20
2022-08-22T22:16:34.170Z,24.16
2022-08-22T22:19:36.460Z,24.09
2022-08-22T22:22:43.145Z,24.09
2022-08-22T22:25:48.802Z,23.91
2022-08-22T22:28:51.116Z,23.85
2022-08-22T22:31:52.574Z,23.96
2022-08-22T22:34:54.032Z,24.05
2022-08-22T22:37:55.922Z,24.04
2022-08-22T22:40:57.440Z,24.09
2022-08-22T22:44:00.983Z,24.34
2022-08-22T22:47:03.811Z,24.31
2022-08-22T22:50:07.460Z,23.79
2022-08-22T22:53:09.926Z,23.91
2022-08-22T22:56:17.952Z,24.05
2022-08-22T22:59:24.761Z,23.85
2022-08-22T23:02:27.120Z,23.88
2022-08-22T23:05:32.238Z,23.82
2022-08-22T23:08:33.658Z,23.74
2022-08-22T23:11:35.710Z,23.46
2022-08-22T23:14:37.174Z,23.32
2022-08-22T23:17:38.760Z,23.05
2022-08-22T23:20:40.177Z,23.05
2022-08-22T23:23:42.133Z,22.77
2022-08-22T23:26:44.462Z,22.87
2022-08-22T23:29:45.995Z,22.87
2022-08-22T23:32:47.759Z,22.85
2022-08-22T23:35:49.221Z,22.83
2022-08-22T23:38:51.304Z,22.88
2022-08-22T23:41:54.131Z,22.89
2022-08-22T23:44:55.633Z,22.84
